Terminal Aerodrome Forecast
Issued by NWS

Home | Current Version | Previous Version | Text Only | Print | Product List | Glossary On
Versions: 1 2 3 4 5 6 7 8 9 10 11 12 13 14
244
FTUS43 KSGF 082320
TAFJLN
TAF
KJLN 082320Z 0900/0924 32018G30KT P6SM OVC060
     FM090100 32018G29KT P6SM SCT060
     FM090300 31012G20KT P6SM SKC
     FM091400 32016G25KT P6SM SKC=

USA.gov is the U.S. government's official web portal to all federal, state and local government web resources and services.